createdAt,value
2023-03-02T00:01:09.359Z,101768.59
2023-03-02T00:03:38.578Z,101699.50
2023-03-02T00:06:05.713Z,101750.13
2023-03-02T00:08:33.402Z,101687.78
2023-03-02T00:11:00.885Z,101738.66
2023-03-02T00:13:30.100Z,101724.75
2023-03-02T00:15:56.701Z,101737.84
2023-03-02T00:18:23.320Z,101726.41
2023-03-02T00:20:49.858Z,101730.06
2023-03-02T00:23:16.505Z,101748.41
2023-03-02T00:25:42.925Z,101760.69
2023-03-02T00:28:09.440Z,101714.13
2023-03-02T00:30:38.212Z,101739.06
2023-03-02T00:33:04.888Z,101684.78
2023-03-02T00:35:31.438Z,101736.94
2023-03-02T00:37:57.916Z,101715.28
2023-03-02T00:40:24.494Z,101740.06
2023-03-02T00:42:51.054Z,101692.81
2023-03-02T00:45:17.528Z,101694.22
2023-03-02T00:47:43.956Z,101745.31
2023-03-02T00:50:10.811Z,101735.69
2023-03-02T00:52:37.572Z,101725.53
2023-03-02T00:55:04.412Z,101722.88
2023-03-02T00:57:31.111Z,101735.41
2023-03-02T00:59:57.594Z,101727.81
2023-03-02T01:02:24.149Z,101733.41
2023-03-02T01:04:50.936Z,101705.00
2023-03-02T01:07:19.156Z,101737.56
2023-03-02T01:09:45.748Z,101763.41
2023-03-02T01:12:12.282Z,101734.63
2023-03-02T01:14:41.161Z,101732.06
2023-03-02T01:17:08.240Z,101690.53
2023-03-02T01:19:34.897Z,101744.88
2023-03-02T01:22:01.413Z,101739.84
2023-03-02T01:24:28.125Z,101765.97
2023-03-02T01:26:54.678Z,101721.31
2023-03-02T01:29:21.248Z,101717.00
2023-03-02T01:31:47.761Z,101729.41
2023-03-02T01:34:14.348Z,101746.81
2023-03-02T01:36:40.873Z,101728.44
2023-03-02T01:39:07.390Z,101731.88
2023-03-02T01:41:33.860Z,101739.31
2023-03-02T01:44:00.315Z,101648.72
2023-03-02T01:46:30.358Z,101711.44
2023-03-02T01:49:02.973Z,101667.56
2023-03-02T01:51:34.441Z,101658.06
2023-03-02T01:54:08.438Z,101693.53
2023-03-02T01:56:39.546Z,101672.34
2023-03-02T01:59:10.961Z,101689.75
2023-03-02T02:04:36.728Z,101660.09
2023-03-02T02:07:06.108Z,101676.47
2023-03-02T02:09:39.157Z,101697.47
2023-03-02T02:12:06.014Z,101697.34
2023-03-02T02:14:32.517Z,101684.97
2023-03-02T02:16:59.122Z,101696.66
2023-03-02T02:19:43.282Z,101661.44
2023-03-02T02:22:11.324Z,101631.66
2023-03-02T02:24:53.322Z,101717.50
2023-03-02T02:27:19.802Z,101727.19
2023-03-02T02:29:49.907Z,101721.25
2023-03-02T02:32:18.066Z,101690.91
2023-03-02T02:34:51.428Z,101672.91
2023-03-02T02:37:28.954Z,101703.53
2023-03-02T02:39:56.066Z,101673.63
2023-03-02T02:42:30.242Z,101683.44
2023-03-02T02:44:59.069Z,101694.69
2023-03-02T02:47:25.717Z,101721.81
2023-03-02T02:49:54.856Z,101728.44
2023-03-02T02:52:24.607Z,101917.50
2023-03-02T02:54:53.725Z,101946.53
2023-03-02T02:57:23.310Z,101929.72
2023-03-02T02:59:55.276Z,101943.88
2023-03-02T03:02:26.291Z,101923.97
2023-03-02T03:04:53.078Z,101932.88
2023-03-02T03:07:24.942Z,101905.81
2023-03-02T03:10:18.024Z,101910.13
2023-03-02T03:12:45.120Z,101875.38
2023-03-02T03:15:12.624Z,101905.69
2023-03-02T03:17:39.113Z,101877.69
2023-03-02T03:20:06.298Z,101871.72
2023-03-02T03:22:35.859Z,101844.56
2023-03-02T03:25:02.552Z,101827.94
2023-03-02T03:27:29.322Z,101878.94
2023-03-02T03:29:55.848Z,101865.88
2023-03-02T03:32:22.688Z,101822.84
2023-03-02T03:34:49.365Z,101843.63
2023-03-02T03:37:18.470Z,101818.63
2023-03-02T03:39:45.445Z,101812.97
2023-03-02T03:42:12.343Z,101769.97
2023-03-02T03:44:38.823Z,101738.06
2023-03-02T03:47:05.319Z,101711.94
2023-03-02T03:49:31.755Z,101680.66
2023-03-02T03:51:58.230Z,101682.75
2023-03-02T03:54:24.668Z,101628.88
2023-03-02T03:56:51.160Z,101594.13
2023-03-02T03:59:21.484Z,101577.09
2023-03-02T04:01:54.325Z,101523.19
2023-03-02T04:04:25.400Z,101526.97
2023-03-02T04:06:53.355Z,101495.75
2023-03-02T04:09:20.489Z,101482.34
2023-03-02T04:11:48.802Z,101443.44
2023-03-02T04:14:15.923Z,101421.50
2023-03-02T04:16:43.200Z,101382.81
2023-03-02T04:19:10.539Z,101360.09
2023-03-02T04:21:40.025Z,101339.63
2023-03-02T04:24:07.750Z,101292.28
2023-03-02T04:26:35.454Z,101229.19
2023-03-02T04:29:02.070Z,101244.06
2023-03-02T04:31:28.812Z,101206.41
2023-03-02T04:33:55.284Z,101151.41
2023-03-02T04:36:21.745Z,101109.72
2023-03-02T04:38:48.614Z,101162.03
2023-03-02T04:41:15.656Z,101249.63
2023-03-02T04:43:42.497Z,101220.63
2023-03-02T04:46:14.415Z,101236.00
2023-03-02T04:48:40.895Z,101246.88
2023-03-02T04:51:08.790Z,101269.94
2023-03-02T04:53:35.235Z,101378.28
2023-03-02T04:56:01.735Z,101487.56
2023-03-02T04:58:28.155Z,101528.31
2023-03-02T05:00:54.580Z,101615.34
2023-03-02T05:03:21.146Z,101706.69
2023-03-02T05:05:47.593Z,101778.91
2023-03-02T05:08:14.033Z,101940.47
2023-03-02T05:10:40.503Z,101973.78
2023-03-02T05:13:07.006Z,101995.09
2023-03-02T05:15:39.552Z,102023.75
2023-03-02T05:18:08.589Z,102078.03
2023-03-02T05:20:35.531Z,102114.22
2023-03-02T05:23:05.044Z,102126.28
2023-03-02T05:25:34.084Z,102138.72
2023-03-02T05:28:01.508Z,102144.16
2023-03-02T05:30:28.820Z,102131.13
2023-03-02T05:32:55.256Z,102138.72
2023-03-02T05:35:22.529Z,102114.84
2023-03-02T05:37:49.195Z,102082.13
2023-03-02T05:40:20.104Z,102073.06
2023-03-02T05:42:46.618Z,101974.28
2023-03-02T05:45:24.450Z,101945.03
2023-03-02T05:47:50.903Z,101948.03
2023-03-02T05:50:17.801Z,101945.88
2023-03-02T05:52:44.471Z,101957.69
2023-03-02T05:55:12.703Z,101971.13
2023-03-02T05:57:39.378Z,102024.91
2023-03-02T06:00:07.663Z,101958.69
2023-03-02T06:02:34.175Z,101919.31
2023-03-02T06:05:00.777Z,101939.84
2023-03-02T06:07:27.232Z,101956.84
2023-03-02T06:09:53.701Z,101949.28
2023-03-02T06:12:20.126Z,101928.72
2023-03-02T06:14:46.616Z,101924.94
2023-03-02T06:17:13.071Z,101882.59
2023-03-02T06:19:39.583Z,101890.50
2023-03-02T06:22:06.051Z,101909.28
2023-03-02T06:24:32.574Z,101929.28
2023-03-02T06:26:59.131Z,101938.09
2023-03-02T06:29:25.690Z,101955.22
2023-03-02T06:31:52.372Z,101951.50
2023-03-02T06:34:18.962Z,101948.56
2023-03-02T06:36:45.384Z,101929.25
2023-03-02T06:39:11.958Z,101958.69
2023-03-02T06:41:38.360Z,101964.84
2023-03-02T06:44:04.898Z,101979.25
2023-03-02T06:46:31.738Z,102079.59
2023-03-02T06:48:58.427Z,102163.09
2023-03-02T06:51:24.881Z,102296.25
2023-03-02T06:53:51.418Z,102258.91
2023-03-02T06:56:17.936Z,102131.63
2023-03-02T06:58:44.364Z,102116.66
2023-03-02T07:01:10.948Z,102252.06
2023-03-02T07:03:37.519Z,102304.25
2023-03-02T07:06:04.374Z,102381.53
2023-03-02T07:08:30.889Z,102471.72
2023-03-02T07:10:57.485Z,102631.09
2023-03-02T07:13:23.959Z,102691.34
2023-03-02T07:15:50.409Z,102757.63
2023-03-02T07:18:17.183Z,102738.25
2023-03-02T07:20:43.609Z,102739.66
2023-03-02T07:23:10.127Z,102597.88
2023-03-02T07:25:36.571Z,102641.22
2023-03-02T07:28:03.167Z,102614.06
2023-03-02T07:30:29.677Z,102644.19
2023-03-02T07:32:56.186Z,102710.53
2023-03-02T07:35:22.706Z,102793.88
2023-03-02T07:37:49.202Z,102787.09
2023-03-02T07:40:15.997Z,102729.91
2023-03-02T07:42:42.457Z,102601.97
2023-03-02T07:45:10.582Z,102599.66
2023-03-02T07:47:37.058Z,102556.06
2023-03-02T07:50:04.293Z,102525.72
2023-03-02T07:52:30.789Z,102401.31
2023-03-02T07:54:57.592Z,102366.81
2023-03-02T07:57:24.072Z,102342.41
2023-03-02T07:59:50.732Z,102335.81
2023-03-02T08:02:18.540Z,102295.25
2023-03-02T08:04:44.988Z,102266.22
2023-03-02T08:07:11.800Z,102290.56
2023-03-02T08:09:39.482Z,102284.81
2023-03-02T08:12:06.013Z,102272.81
2023-03-02T08:14:32.634Z,102279.84
2023-03-02T08:16:59.162Z,102289.22
2023-03-02T08:19:25.570Z,102325.88
2023-03-02T08:21:52.190Z,102338.31
2023-03-02T08:24:18.699Z,102384.34
2023-03-02T08:26:45.196Z,102394.53
2023-03-02T08:29:11.917Z,102466.50
2023-03-02T08:31:38.508Z,102546.47
2023-03-02T08:34:05.248Z,102560.06
2023-03-02T08:36:32.273Z,102530.75
2023-03-02T08:38:58.887Z,102487.41
2023-03-02T08:41:25.441Z,102478.41
2023-03-02T08:43:52.341Z,102462.69
2023-03-02T08:46:18.968Z,102455.50
2023-03-02T08:48:45.697Z,102468.31
2023-03-02T08:51:19.351Z,102421.13
2023-03-02T08:53:47.740Z,102396.94
2023-03-02T08:56:25.817Z,102344.38
2023-03-02T08:58:54.040Z,102333.78
2023-03-02T09:01:23.860Z,102278.97
2023-03-02T09:03:50.726Z,102282.66
2023-03-02T09:06:17.733Z,102225.81
2023-03-02T09:08:44.780Z,102293.16
2023-03-02T09:11:11.213Z,102256.63
2023-03-02T09:13:38.292Z,102256.41
2023-03-02T09:16:05.861Z,102296.66
2023-03-02T09:18:32.384Z,102335.34
2023-03-02T09:20:59.053Z,102350.97
2023-03-02T09:23:27.000Z,102391.19
2023-03-02T09:25:54.342Z,102394.66
2023-03-02T09:28:21.428Z,102458.97
2023-03-02T09:30:50.544Z,102482.41
2023-03-02T09:33:17.198Z,102350.53
2023-03-02T09:35:43.902Z,102355.69
2023-03-02T09:38:10.438Z,102412.84
2023-03-02T09:40:44.827Z,102539.53
2023-03-02T09:43:36.106Z,102569.75
2023-03-02T09:46:08.601Z,102362.97
2023-03-02T09:48:49.095Z,102084.09
2023-03-02T09:51:29.651Z,102338.59
2023-03-02T09:54:14.389Z,102223.91
2023-03-02T09:56:49.729Z,102283.06
2023-03-02T09:59:28.767Z,102215.28
2023-03-02T10:02:05.269Z,102195.69
2023-03-02T10:04:38.832Z,102261.09
2023-03-02T10:07:14.167Z,102243.16
2023-03-02T10:09:41.708Z,102118.06
2023-03-02T10:12:22.452Z,102126.41
2023-03-02T10:15:08.997Z,102158.56
2023-03-02T10:17:41.104Z,102197.06
2023-03-02T10:20:41.521Z,102169.88
2023-03-02T10:23:20.026Z,102166.22
2023-03-02T10:25:46.441Z,102175.78
2023-03-02T10:28:18.718Z,102183.94
2023-03-02T10:30:46.737Z,102195.06
2023-03-02T10:33:19.044Z,102317.69
2023-03-02T10:35:52.668Z,102360.09
2023-03-02T10:38:25.125Z,102348.13
2023-03-02T10:40:58.219Z,102330.41
2023-03-02T10:43:34.345Z,102273.91
2023-03-02T10:46:01.924Z,102226.94
2023-03-02T10:48:28.678Z,102260.69
2023-03-02T10:50:56.947Z,102242.50
2023-03-02T10:53:23.519Z,102290.88
2023-03-02T10:55:52.994Z,102166.19
2023-03-02T10:58:33.689Z,102231.50
2023-03-02T11:01:16.905Z,102218.84
2023-03-02T11:03:43.409Z,102188.59
2023-03-02T11:06:20.840Z,102169.97
2023-03-02T11:09:01.893Z,102157.00
2023-03-02T11:11:28.832Z,102140.19
2023-03-02T11:13:55.737Z,102118.38
2023-03-02T11:16:24.262Z,102107.66
2023-03-02T11:19:15.408Z,102097.75
2023-03-02T11:22:05.593Z,102026.56
2023-03-02T11:24:39.175Z,102045.56
2023-03-02T11:27:28.351Z,102067.25
2023-03-02T11:30:00.895Z,102054.78
2023-03-02T11:32:36.666Z,102054.31
2023-03-02T11:35:12.231Z,102064.81
2023-03-02T11:37:50.830Z,102037.19
2023-03-02T11:40:29.211Z,102039.16
2023-03-02T11:42:58.228Z,102017.94
2023-03-02T11:45:37.866Z,102014.22
2023-03-02T11:48:18.115Z,101989.06
2023-03-02T11:50:57.980Z,101992.09
2023-03-02T11:53:36.908Z,101961.53
2023-03-02T11:56:03.575Z,101896.22
2023-03-02T11:58:31.200Z,101910.84
2023-03-02T12:00:57.764Z,101900.25
2023-03-02T12:03:37.860Z,101888.41
2023-03-02T12:06:25.548Z,101880.56
2023-03-02T12:08:55.309Z,101860.88
2023-03-02T12:11:21.766Z,101856.31
2023-03-02T12:13:54.337Z,101859.00
2023-03-02T12:16:34.609Z,101866.41
2023-03-02T12:19:16.399Z,101834.63
2023-03-02T12:22:01.065Z,101827.03
2023-03-02T12:24:30.965Z,101831.09
2023-03-02T12:27:08.729Z,101844.78
2023-03-02T12:29:44.312Z,101845.81
2023-03-02T12:32:19.770Z,101837.97
2023-03-02T12:34:56.485Z,101766.41
2023-03-02T12:37:28.693Z,101782.66
2023-03-02T12:40:19.695Z,101785.91
2023-03-02T12:42:55.513Z,101765.91
2023-03-02T12:45:28.161Z,101757.53
2023-03-02T12:48:23.852Z,101748.25
2023-03-02T12:50:55.199Z,101751.00
2023-03-02T12:53:21.836Z,101731.47
2023-03-02T12:55:48.353Z,101735.53
2023-03-02T12:58:24.295Z,101726.38
2023-03-02T13:00:53.460Z,101724.44
2023-03-02T13:03:20.745Z,101678.13
2023-03-02T13:05:47.997Z,101659.47
2023-03-02T13:08:27.187Z,101651.91
2023-03-02T13:10:55.805Z,101676.63
2023-03-02T13:13:41.737Z,101665.84
2023-03-02T13:16:22.101Z,101658.69
2023-03-02T13:18:49.704Z,101662.25
2023-03-02T13:21:18.817Z,101630.22
2023-03-02T13:23:50.624Z,101629.66
2023-03-02T13:26:35.181Z,101622.56
2023-03-02T13:29:14.774Z,101634.22
2023-03-02T13:31:41.257Z,101662.09
2023-03-02T13:34:21.397Z,101624.53
2023-03-02T13:36:47.931Z,101771.25
2023-03-02T13:39:40.879Z,101864.38
2023-03-02T13:42:25.960Z,101907.19
2023-03-02T13:44:52.459Z,101955.56
2023-03-02T13:47:24.444Z,101958.59
2023-03-02T13:49:51.083Z,102071.56
2023-03-02T13:52:26.530Z,102032.81
2023-03-02T13:54:54.085Z,102030.50
2023-03-02T13:57:31.589Z,102058.81
2023-03-02T13:59:59.924Z,102113.00
2023-03-02T14:02:30.312Z,102115.91
2023-03-02T14:04:57.455Z,102113.94
2023-03-02T14:07:24.067Z,102103.69
2023-03-02T14:09:50.662Z,102111.16
2023-03-02T14:12:27.528Z,102132.50
2023-03-02T14:14:58.196Z,102087.88
2023-03-02T14:17:26.117Z,102099.97
2023-03-02T14:19:53.147Z,102104.94
2023-03-02T14:22:20.633Z,102114.44
2023-03-02T14:24:47.171Z,102084.31
2023-03-02T14:27:15.402Z,102109.78
2023-03-02T14:29:43.734Z,102107.09
2023-03-02T14:32:12.482Z,102106.91
2023-03-02T14:34:39.034Z,102081.41
2023-03-02T14:37:13.676Z,102079.88
2023-03-02T14:39:43.361Z,102058.69
2023-03-02T14:42:20.337Z,102034.03
2023-03-02T14:44:48.802Z,102031.00
2023-03-02T14:47:15.756Z,102064.78
2023-03-02T14:49:43.408Z,102044.47
2023-03-02T14:52:30.883Z,102051.31
2023-03-02T14:55:01.498Z,102047.97
2023-03-02T14:57:30.144Z,102014.94
2023-03-02T14:59:56.756Z,102011.56
2023-03-02T15:02:25.996Z,102045.78
2023-03-02T15:04:55.022Z,102046.81
2023-03-02T15:07:24.533Z,102032.59
2023-03-02T15:09:51.027Z,102033.00
2023-03-02T15:12:17.647Z,102010.50
2023-03-02T15:14:44.107Z,102049.09
2023-03-02T15:17:10.882Z,102043.66
2023-03-02T15:19:37.364Z,102055.00
2023-03-02T15:22:04.832Z,102029.00
2023-03-02T15:24:33.221Z,102058.88
2023-03-02T15:27:00.320Z,102025.38
2023-03-02T15:29:26.860Z,102053.44
2023-03-02T15:31:53.686Z,102040.03
2023-03-02T15:34:20.397Z,102079.47
2023-03-02T15:36:46.927Z,102092.59
2023-03-02T15:39:15.623Z,102169.88
2023-03-02T15:41:42.427Z,102172.72
2023-03-02T15:44:17.378Z,102150.38
2023-03-02T15:46:43.956Z,102152.13
2023-03-02T15:49:10.359Z,102161.75
2023-03-02T15:51:36.882Z,102169.84
2023-03-02T15:54:03.520Z,102184.34
2023-03-02T15:56:38.853Z,102181.19
2023-03-02T15:59:10.103Z,102198.84
2023-03-02T16:01:36.644Z,102192.47
2023-03-02T16:04:03.112Z,102177.84
2023-03-02T16:06:30.261Z,102139.97
2023-03-02T16:08:56.692Z,102148.75
2023-03-02T16:11:23.186Z,102144.56
2023-03-02T16:13:50.668Z,102169.47
2023-03-02T16:16:18.618Z,101915.59
2023-03-02T16:18:53.909Z,101665.91
2023-03-02T16:21:21.224Z,101583.38
2023-03-02T16:23:47.807Z,101552.66
2023-03-02T16:26:16.302Z,101566.66
2023-03-02T16:28:42.799Z,101557.31
2023-03-02T16:31:13.638Z,101560.16
2023-03-02T16:33:41.374Z,101549.31
2023-03-02T16:36:09.260Z,101593.75
2023-03-02T16:38:36.177Z,101591.41
2023-03-02T16:41:04.241Z,101605.25
2023-03-02T16:43:30.993Z,101638.53
2023-03-02T16:45:57.580Z,101646.50
2023-03-02T16:48:24.153Z,101656.44
2023-03-02T16:50:56.003Z,101636.28
2023-03-02T16:53:22.464Z,101675.56
2023-03-02T16:55:49.834Z,101664.00
2023-03-02T16:58:16.533Z,101706.06
2023-03-02T17:00:43.060Z,101707.16
2023-03-02T17:03:09.544Z,101747.91
2023-03-02T17:05:36.407Z,101771.28
2023-03-02T17:08:02.933Z,101776.69
2023-03-02T17:10:29.377Z,101744.75
2023-03-02T17:12:55.854Z,101789.59
2023-03-02T17:15:22.304Z,101801.06
2023-03-02T17:17:48.778Z,101815.66
2023-03-02T17:20:15.297Z,101822.88
2023-03-02T17:22:41.799Z,101841.31
2023-03-02T17:25:08.861Z,101851.34
2023-03-02T17:27:35.372Z,101854.19
2023-03-02T17:30:02.050Z,101880.19
2023-03-02T17:32:28.691Z,101886.22
2023-03-02T17:34:55.271Z,101895.78
2023-03-02T17:37:21.818Z,101909.31
2023-03-02T17:39:52.372Z,101919.56
2023-03-02T17:42:19.434Z,101921.00
2023-03-02T17:44:46.049Z,101942.28
2023-03-02T17:47:15.073Z,101921.91
2023-03-02T17:49:42.340Z,101965.91
2023-03-02T17:52:08.949Z,101967.38
2023-03-02T17:54:35.569Z,101970.44
2023-03-02T17:57:02.034Z,101984.06
2023-03-02T17:59:28.519Z,101996.59
2023-03-02T18:01:55.324Z,101977.53
2023-03-02T18:04:22.288Z,101915.00
2023-03-02T18:06:49.340Z,101802.47
2023-03-02T18:09:16.107Z,101754.69
2023-03-02T18:11:42.745Z,101735.38
2023-03-02T18:14:14.331Z,101728.16
2023-03-02T18:16:41.122Z,101725.56
2023-03-02T18:19:08.005Z,101721.00
2023-03-02T18:21:34.596Z,101720.50
2023-03-02T18:24:01.027Z,101707.81
2023-03-02T18:26:27.556Z,101711.63
2023-03-02T18:28:54.148Z,101722.81
2023-03-02T18:31:21.211Z,101725.09
2023-03-02T18:33:48.270Z,101712.13
2023-03-02T18:36:14.855Z,101739.69
2023-03-02T18:38:41.631Z,101743.81
2023-03-02T18:41:09.358Z,101731.00
2023-03-02T18:43:39.460Z,101696.69
2023-03-02T18:46:06.449Z,101729.75
2023-03-02T18:48:32.999Z,101709.06
2023-03-02T18:50:59.675Z,101718.09
2023-03-02T18:53:26.316Z,101690.06
2023-03-02T18:55:56.252Z,101694.22
2023-03-02T18:58:24.601Z,101712.94
2023-03-02T19:00:53.256Z,101681.56
2023-03-02T19:03:19.970Z,101705.50
2023-03-02T19:05:46.601Z,101717.75
2023-03-02T19:08:13.123Z,101716.69
2023-03-02T19:10:40.305Z,101712.88
2023-03-02T19:13:06.794Z,101707.69
2023-03-02T19:15:33.474Z,101701.34
2023-03-02T19:17:59.974Z,101710.06
2023-03-02T19:20:26.934Z,101706.56
2023-03-02T19:22:55.040Z,101663.88
2023-03-02T19:25:21.540Z,101698.47
2023-03-02T19:27:48.399Z,101696.84
2023-03-02T19:30:21.503Z,101683.88
2023-03-02T19:32:48.039Z,101722.88
2023-03-02T19:35:15.948Z,101723.41
2023-03-02T19:37:42.420Z,101726.00
2023-03-02T19:40:09.680Z,101733.47
2023-03-02T19:42:36.280Z,101740.41
2023-03-02T19:45:02.914Z,101743.00
2023-03-02T19:47:29.441Z,101745.44
2023-03-02T19:49:55.981Z,101769.25
2023-03-02T19:52:22.558Z,101776.19
2023-03-02T19:54:49.054Z,101769.50
2023-03-02T19:57:15.479Z,101772.50
2023-03-02T19:59:42.005Z,101763.53
2023-03-02T20:02:08.558Z,101726.94
2023-03-02T20:04:35.245Z,101768.53
2023-03-02T20:07:03.018Z,101771.94
2023-03-02T20:09:29.593Z,101774.13
2023-03-02T20:11:56.038Z,101741.59
2023-03-02T20:14:33.827Z,101764.06
2023-03-02T20:17:01.696Z,101734.78
2023-03-02T20:19:28.247Z,101768.25
2023-03-02T20:21:54.703Z,101771.78
2023-03-02T20:24:21.231Z,101743.63
2023-03-02T20:26:47.822Z,101735.72
2023-03-02T20:29:15.892Z,101772.72
2023-03-02T20:31:43.488Z,101743.50
2023-03-02T20:34:12.140Z,101778.84
2023-03-02T20:36:38.739Z,101765.50
2023-03-02T20:39:14.860Z,101760.72
2023-03-02T20:41:41.700Z,101781.66
2023-03-02T20:44:09.504Z,101776.03
2023-03-02T20:46:40.990Z,101765.84
2023-03-02T20:49:09.932Z,101809.19
2023-03-02T20:51:38.286Z,101798.56
2023-03-02T20:54:05.226Z,101807.00
2023-03-02T20:56:32.047Z,101804.66
2023-03-02T20:58:58.531Z,101812.38
2023-03-02T21:01:25.139Z,101858.38
2023-03-02T21:03:52.525Z,101910.19
2023-03-02T21:06:19.114Z,101905.09
2023-03-02T21:08:45.660Z,101923.28
2023-03-02T21:11:16.279Z,101938.22
2023-03-02T21:13:44.710Z,101953.56
2023-03-02T21:16:15.944Z,101959.66
2023-03-02T21:18:42.507Z,101968.63
2023-03-02T21:21:09.012Z,102036.66
2023-03-02T21:23:35.534Z,102055.69
2023-03-02T21:26:02.083Z,102037.13
2023-03-02T21:28:28.614Z,102088.22
2023-03-02T21:30:55.143Z,102053.88
2023-03-02T21:33:21.772Z,102090.19
2023-03-02T21:35:48.296Z,102113.88
2023-03-02T21:38:14.743Z,102134.50
2023-03-02T21:40:42.898Z,102148.34
2023-03-02T21:43:09.756Z,102170.47
2023-03-02T21:45:36.331Z,102191.03
2023-03-02T21:48:04.137Z,102168.00
2023-03-02T21:50:33.022Z,102238.81
2023-03-02T21:52:59.857Z,102222.41
2023-03-02T21:55:28.497Z,102266.09
2023-03-02T21:57:55.854Z,102281.38
2023-03-02T22:00:34.290Z,102260.25
2023-03-02T22:03:01.365Z,102282.97
2023-03-02T22:05:28.517Z,102291.72
2023-03-02T22:07:55.660Z,102305.66
2023-03-02T22:10:24.990Z,102351.41
2023-03-02T22:13:20.759Z,102351.16
2023-03-02T22:15:48.245Z,102348.69
2023-03-02T22:18:20.308Z,102319.94
2023-03-02T22:20:49.775Z,102356.94
2023-03-02T22:23:19.179Z,102366.31
2023-03-02T22:25:45.714Z,102368.34
2023-03-02T22:28:25.022Z,102402.03
2023-03-02T22:30:56.476Z,102426.47
2023-03-02T22:33:26.085Z,102451.91
2023-03-02T22:36:11.066Z,102461.16
2023-03-02T22:38:37.503Z,102439.78
2023-03-02T22:41:06.233Z,102481.22
2023-03-02T22:43:34.868Z,102499.97
2023-03-02T22:46:10.211Z,102487.28
2023-03-02T22:48:38.228Z,102485.53
2023-03-02T22:51:22.828Z,102491.13
2023-03-02T22:53:54.964Z,102470.09
2023-03-02T22:56:31.594Z,102457.91
2023-03-02T22:59:02.471Z,102469.25
2023-03-02T23:01:39.670Z,102414.00
2023-03-02T23:04:16.330Z,102420.56
2023-03-02T23:06:45.731Z,102407.41
2023-03-02T23:09:15.560Z,102369.19
2023-03-02T23:11:44.490Z,102361.66
2023-03-02T23:14:22.596Z,102355.69
2023-03-02T23:17:02.940Z,102315.97
2023-03-02T23:19:31.087Z,102284.13
2023-03-02T23:21:58.316Z,102236.78
2023-03-02T23:24:25.632Z,102193.22
2023-03-02T23:26:53.075Z,102240.00
2023-03-02T23:29:20.542Z,102241.75
2023-03-02T23:31:47.685Z,102158.00
2023-03-02T23:34:14.213Z,102164.31
2023-03-02T23:36:41.225Z,102096.91
2023-03-02T23:39:08.796Z,102008.91
2023-03-02T23:41:36.992Z,102018.66
2023-03-02T23:44:03.507Z,101963.91
2023-03-02T23:46:30.146Z,101877.22
2023-03-02T23:48:56.704Z,101870.91
2023-03-02T23:51:24.303Z,101798.28
2023-03-02T23:53:51.407Z,101768.69
2023-03-02T23:56:18.275Z,101730.78
2023-03-02T23:58:45.074Z,101656.34
